Terminal Aerodrome Forecast
Issued by NWS Melbourne, FL

Home | Current Version | Previous Version | Text Only | Print | Product List | Glossary On
Versions: 1 2 3 4 5 6 7 8 9 10 11 12 13 14 15 16 17 18
000
FTUS42 KMLB 261500 AAA
TAFMCO
TAF AMD
KMCO 261526Z 2615/2712 35006KT P6SM FEW050
     FM261800 05006KT P6SM OVC040
     FM270900 03003KT 3SM BR OVC003
      TEMPO 2709/2712 2SM BR OVC002=

USA.gov is the U.S. government's official web portal to all federal, state and local government web resources and services.